Perkins, GA (30822)

4:45 PM EDT on May 29, 2015 (GMT -0400)
Plantation | | Change Station
CLOSE
Current Station
Airport
Location: Sylvania,
Elevation: 187 ft
Nearby Weather Stations

Elev 187 ft 32.65 °N, 81.60 °W | Updated 10 minutes ago

Clear
Clear
87 °F
Feels Like 88 °F
N
7
Wind Variable Wind from SSE

Today
High -- | Low -- °F
--% Chance of Precip.
Yesterday
High -- | Low -- °F
Precip. -- in
6:21 AM 8:29 PM
Waxing Gibbous, 86% visible
Pressure 30.15 in
Visibility 10.0 miles
Clouds Scattered Clouds 6000 ft
Heat Index 88 °F
Dew Point 63 °F
Humidity 44%
Rainfall 0.00 in
Snow Depth Not available.
UV 6 out of 12
Pollen 5.50 out of 12
Air Quality Not available.
Flu Activity Sporadic
METAR KJYL 292035Z AUTO 15006KT 10SM SCT060 31/17 A3015 RMK AO2 T03070171

More Conditions Fewer Conditions

Pressure 30.15 in
Visibility 10.0 miles
Clouds Scattered Clouds 6000 ft
Heat Index 88 °F
Dew Point 63 °F
Humidity 44%
Rainfall 0.00 in
Snow Depth Not available.
UV 6 out of 12
Pollen 5.50 out of 12
Air Quality Not available.
Flu Activity Sporadic
METAR KJYL 292035Z AUTO 15006KT 10SM SCT060 31/17 A3015 RMK AO2 T03070171

More Conditions Fewer Conditions

10-Day Weather Forecast

Almanac

Astronomy

May. 29, 2015 Rise Set
Actual Time
Civil Twilight
Nautical Twilight
Astronomical Twilight
Moon
Length of Visible Light
Length of Day
Tomorrow will be .
, % of the Moon is Illuminated

Today's Extremes

State Highs State Lows

Community

WunderPhotos

Upload Photos

1,825,351 photos uploaded!

WunderBlogs® & News

Nearby

Air Quality

  Air Quality AQ Index Pollutant
Not available.

Snow Depth

Station Depth Elevation

Earthquake Activity

City Distance Mag. Time & Date
Minimum magnitude displayed is 2.5.

Coastal Water Temperatures

Place Temperature

Stations

Nearby Weather Stations

Station Location Temp. Windchill Dew Point Humidity Wind Precip. Elev Updated Type